createdAt,value
2023-05-08T00:01:17.674Z,2.30
2023-05-08T00:03:44.321Z,2.37
2023-05-08T00:06:11.052Z,2.20
2023-05-08T00:08:37.673Z,2.23
2023-05-08T00:11:04.236Z,2.33
2023-05-08T00:13:30.673Z,2.40
2023-05-08T00:15:57.232Z,2.00
2023-05-08T00:18:23.891Z,2.17
2023-05-08T00:20:50.414Z,2.40
2023-05-08T00:23:16.858Z,2.30
2023-05-08T00:25:43.388Z,2.20
2023-05-08T00:28:09.816Z,2.33
2023-05-08T00:30:36.824Z,2.40
2023-05-08T00:33:03.426Z,2.37
2023-05-08T00:35:30.131Z,3.00
2023-05-08T00:37:57.122Z,2.40
2023-05-08T00:40:23.737Z,2.10
2023-05-08T00:42:50.168Z,2.67
2023-05-08T00:45:16.894Z,2.30
2023-05-08T00:47:43.504Z,2.07
2023-05-08T00:50:11.018Z,2.43
2023-05-08T00:52:38.379Z,2.57
2023-05-08T00:55:06.521Z,2.60
2023-05-08T00:57:37.776Z,2.30
2023-05-08T01:00:05.425Z,2.37
2023-05-08T01:02:32.394Z,2.47
2023-05-08T01:04:59.084Z,2.20
2023-05-08T01:07:26.011Z,2.60
2023-05-08T01:09:52.664Z,2.43
2023-05-08T01:12:51.256Z,2.27
2023-05-08T01:15:31.841Z,2.40
2023-05-08T01:18:19.637Z,2.27
2023-05-08T01:21:14.249Z,2.40
2023-05-08T01:24:13.238Z,2.33
2023-05-08T01:27:14.516Z,2.07
2023-05-08T01:30:11.051Z,2.20
2023-05-08T01:32:48.820Z,2.00
2023-05-08T01:35:32.669Z,2.33
2023-05-08T01:38:30.303Z,2.40
2023-05-08T01:41:10.872Z,2.50
2023-05-08T01:43:46.528Z,1.97
2023-05-08T01:46:27.724Z,2.40
2023-05-08T01:49:03.982Z,2.07
2023-05-08T01:51:39.050Z,2.47
2023-05-08T01:54:10.335Z,2.20
2023-05-08T01:56:39.152Z,2.27
2023-05-08T01:59:07.616Z,2.10
2023-05-08T02:01:34.661Z,2.30
2023-05-08T02:04:02.909Z,2.47
2023-05-08T02:06:32.281Z,2.40
2023-05-08T02:09:00.723Z,2.20
2023-05-08T02:11:31.913Z,2.10
2023-05-08T02:14:01.518Z,2.00
2023-05-08T02:16:30.054Z,2.30
2023-05-08T02:18:59.834Z,2.43
2023-05-08T02:21:27.533Z,1.97
2023-05-08T02:23:57.290Z,2.63
2023-05-08T02:26:25.668Z,2.40
2023-05-08T02:28:54.248Z,2.40
2023-05-08T02:31:21.464Z,2.27
2023-05-08T02:33:49.225Z,2.40
2023-05-08T02:36:18.882Z,2.40
2023-05-08T02:38:50.845Z,2.40
2023-05-08T02:41:22.151Z,2.13
2023-05-08T02:43:51.845Z,2.03
2023-05-08T02:46:24.802Z,2.20
2023-05-08T02:49:07.103Z,2.30
2023-05-08T02:51:50.465Z,2.40
2023-05-08T02:54:46.036Z,2.07
2023-05-08T02:57:34.404Z,2.10
2023-05-08T03:00:07.736Z,2.20
2023-05-08T03:02:44.196Z,2.10
2023-05-08T03:05:18.379Z,2.33
2023-05-08T03:07:50.009Z,2.20
2023-05-08T03:10:19.116Z,2.10
2023-05-08T03:12:48.393Z,2.40
2023-05-08T03:15:21.542Z,2.10
2023-05-08T03:17:52.689Z,2.40
2023-05-08T03:20:21.261Z,2.30
2023-05-08T03:22:50.601Z,2.00
2023-05-08T03:25:19.581Z,1.90
2023-05-08T03:27:48.189Z,2.13
2023-05-08T03:30:16.685Z,2.07
2023-05-08T03:32:53.093Z,1.90
2023-05-08T03:35:20.783Z,2.17
2023-05-08T03:37:47.643Z,2.10
2023-05-08T03:40:14.754Z,2.10
2023-05-08T03:42:41.810Z,2.30
2023-05-08T03:45:10.708Z,2.50
2023-05-08T03:47:37.966Z,2.33
2023-05-08T03:50:05.977Z,2.07
2023-05-08T03:52:32.763Z,2.30
2023-05-08T03:54:59.344Z,2.20
2023-05-08T03:57:30.683Z,2.57
2023-05-08T04:00:02.789Z,2.23
2023-05-08T04:03:24.534Z,2.40
2023-05-08T04:06:17.119Z,2.40
2023-05-08T04:09:18.907Z,2.40
2023-05-08T04:12:09.710Z,2.20
2023-05-08T04:14:45.406Z,2.37
2023-05-08T04:17:15.955Z,2.20
2023-05-08T04:19:48.332Z,2.07
2023-05-08T04:22:17.195Z,2.30
2023-05-08T04:24:46.706Z,2.10
2023-05-08T04:27:14.052Z,2.37
2023-05-08T04:29:41.557Z,2.03
2023-05-08T04:32:09.107Z,2.20
2023-05-08T04:34:36.467Z,2.23
2023-05-08T04:37:03.577Z,2.27
2023-05-08T04:39:30.402Z,2.27
2023-05-08T04:42:02.568Z,1.97
2023-05-08T04:44:32.163Z,2.33
2023-05-08T04:46:58.694Z,2.10
2023-05-08T04:49:25.892Z,2.13
2023-05-08T04:51:52.362Z,2.30
2023-05-08T04:54:18.861Z,2.27
2023-05-08T04:56:45.404Z,2.50
2023-05-08T04:59:12.769Z,2.40
2023-05-08T05:01:40.876Z,2.30
2023-05-08T05:04:07.524Z,2.50
2023-05-08T05:06:34.227Z,2.07
2023-05-08T05:09:00.840Z,1.90
2023-05-08T05:11:27.453Z,2.20
2023-05-08T05:13:54.231Z,2.27
2023-05-08T05:16:20.771Z,2.13
2023-05-08T05:18:47.395Z,2.20
2023-05-08T05:21:14.131Z,2.40
2023-05-08T05:23:41.322Z,2.17
2023-05-08T05:26:07.896Z,2.50
2023-05-08T05:28:35.114Z,2.27
2023-05-08T05:31:02.096Z,1.80
2023-05-08T05:33:29.430Z,2.13
2023-05-08T05:35:56.049Z,2.17
2023-05-08T05:38:23.927Z,2.17
2023-05-08T05:40:50.615Z,2.10
2023-05-08T05:43:17.908Z,2.20
2023-05-08T05:45:44.920Z,2.30
2023-05-08T05:48:12.178Z,2.10
2023-05-08T05:50:40.184Z,2.03
2023-05-08T05:53:06.899Z,1.90
2023-05-08T05:55:34.209Z,2.27
2023-05-08T05:58:00.812Z,2.10
2023-05-08T06:00:27.619Z,2.30
2023-05-08T06:02:56.292Z,2.10
2023-05-08T06:05:23.895Z,1.93
2023-05-08T06:07:51.206Z,2.20
2023-05-08T06:10:17.789Z,2.27
2023-05-08T06:12:44.304Z,2.33
2023-05-08T06:15:11.869Z,2.47
2023-05-08T06:17:38.734Z,2.10
2023-05-08T06:20:06.022Z,2.03
2023-05-08T06:22:32.522Z,2.20
2023-05-08T06:24:59.009Z,2.47
2023-05-08T06:27:26.008Z,2.47
2023-05-08T06:29:53.313Z,1.93
2023-05-08T06:32:20.647Z,2.50
2023-05-08T06:34:47.455Z,2.27
2023-05-08T06:37:14.119Z,2.00
2023-05-08T06:39:40.744Z,2.30
2023-05-08T06:42:08.337Z,2.97
2023-05-08T06:44:38.212Z,2.60
2023-05-08T06:47:04.698Z,2.40
2023-05-08T06:49:31.188Z,2.40
2023-05-08T06:51:58.196Z,2.10
2023-05-08T06:54:24.867Z,2.53
2023-05-08T06:56:52.838Z,2.50
2023-05-08T06:59:19.278Z,2.33
2023-05-08T07:01:45.820Z,1.97
2023-05-08T07:04:12.488Z,2.47
2023-05-08T07:06:38.987Z,2.37
2023-05-08T07:09:05.505Z,2.30
2023-05-08T07:11:32.151Z,2.30
2023-05-08T07:13:58.603Z,2.60
2023-05-08T07:16:25.094Z,2.50
2023-05-08T07:18:51.593Z,2.70
2023-05-08T07:21:20.149Z,2.70
2023-05-08T07:23:47.858Z,2.77
2023-05-08T07:26:14.580Z,2.30
2023-05-08T07:28:40.990Z,2.27
2023-05-08T07:31:07.467Z,2.60
2023-05-08T07:33:34.595Z,2.50
2023-05-08T07:36:01.592Z,2.70
2023-05-08T07:38:28.004Z,2.30
2023-05-08T07:40:57.113Z,2.93
2023-05-08T07:43:24.177Z,2.50
2023-05-08T07:45:50.658Z,2.70
2023-05-08T07:48:17.168Z,2.50
2023-05-08T07:50:44.548Z,2.60
2023-05-08T07:53:11.096Z,2.90
2023-05-08T07:55:37.582Z,2.80
2023-05-08T07:58:03.984Z,2.47
2023-05-08T08:00:31.355Z,2.33
2023-05-08T08:02:58.047Z,2.50
2023-05-08T08:05:24.916Z,2.80
2023-05-08T08:07:51.525Z,3.00
2023-05-08T08:10:18.031Z,2.30
2023-05-08T08:12:45.244Z,3.10
2023-05-08T08:15:11.936Z,2.80
2023-05-08T08:17:38.551Z,2.63
2023-05-08T08:20:05.806Z,2.97
2023-05-08T08:22:32.223Z,2.80
2023-05-08T08:24:58.697Z,2.50
2023-05-08T08:27:25.101Z,2.60
2023-05-08T08:29:58.579Z,2.63
2023-05-08T08:32:31.330Z,2.43
2023-05-08T08:34:57.780Z,2.87
2023-05-08T08:37:26.154Z,2.60
2023-05-08T08:39:53.097Z,2.90
2023-05-08T08:42:19.583Z,2.90
2023-05-08T08:44:46.626Z,2.93
2023-05-08T08:47:16.827Z,3.07
2023-05-08T08:49:47.821Z,2.93
2023-05-08T08:52:30.841Z,2.77
2023-05-08T08:55:00.637Z,2.70
2023-05-08T08:57:32.731Z,2.83
2023-05-08T09:00:03.303Z,3.00
2023-05-08T09:02:31.568Z,2.70
2023-05-08T09:04:58.672Z,2.73
2023-05-08T09:07:25.967Z,3.00
2023-05-08T09:09:53.198Z,3.07
2023-05-08T09:12:19.685Z,3.10
2023-05-08T09:14:46.186Z,3.00
2023-05-08T09:17:12.664Z,2.77
2023-05-08T09:19:40.334Z,2.70
2023-05-08T09:22:09.182Z,2.67
2023-05-08T09:24:54.932Z,2.50
2023-05-08T09:27:22.821Z,2.93
2023-05-08T09:30:08.228Z,2.50
2023-05-08T09:32:37.157Z,2.60
2023-05-08T09:35:05.023Z,2.80
2023-05-08T09:37:31.981Z,2.70
2023-05-08T09:40:19.030Z,2.83
2023-05-08T09:42:46.961Z,2.67
2023-05-08T09:45:30.202Z,2.90
2023-05-08T09:47:57.252Z,2.70
2023-05-08T09:50:24.188Z,2.40
2023-05-08T09:52:50.826Z,2.80
2023-05-08T09:55:18.064Z,2.73
2023-05-08T09:57:56.471Z,2.63
2023-05-08T10:00:24.872Z,3.17
2023-05-08T10:03:00.745Z,2.80
2023-05-08T10:05:36.486Z,2.70
2023-05-08T10:08:23.576Z,2.70
2023-05-08T10:10:50.451Z,2.63
2023-05-08T10:13:16.923Z,2.90
2023-05-08T10:15:44.229Z,2.40
2023-05-08T10:18:12.106Z,2.33
2023-05-08T10:20:41.145Z,2.40
2023-05-08T10:23:11.807Z,2.40
2023-05-08T10:25:45.177Z,2.60
2023-05-08T10:28:20.926Z,2.50
2023-05-08T10:30:49.338Z,2.80
2023-05-08T10:33:20.863Z,3.13
2023-05-08T10:35:48.211Z,2.60
2023-05-08T10:38:16.388Z,2.50
2023-05-08T10:40:42.957Z,2.50
2023-05-08T10:43:10.105Z,2.60
2023-05-08T10:45:37.854Z,2.40
2023-05-08T10:48:13.360Z,2.83
2023-05-08T10:51:04.972Z,2.50
2023-05-08T10:53:38.787Z,2.50
2023-05-08T10:56:05.753Z,2.27
2023-05-08T10:58:41.803Z,2.60
2023-05-08T11:01:08.296Z,2.30
2023-05-08T11:03:52.904Z,2.20
2023-05-08T11:06:46.807Z,2.33
2023-05-08T11:09:26.885Z,2.33
2023-05-08T11:12:20.328Z,2.30
2023-05-08T11:14:56.593Z,2.37
2023-05-08T11:17:24.446Z,2.27
2023-05-08T11:19:59.539Z,2.10
2023-05-08T11:22:31.326Z,2.90
2023-05-08T11:25:02.403Z,2.40
2023-05-08T11:27:36.320Z,2.27
2023-05-08T11:30:33.203Z,2.43
2023-05-08T11:33:14.125Z,2.00
2023-05-08T11:35:47.171Z,2.10
2023-05-08T11:38:38.444Z,2.23
2023-05-08T11:41:08.642Z,2.23
2023-05-08T11:43:37.715Z,2.40
2023-05-08T11:46:21.356Z,2.43
2023-05-08T11:48:48.334Z,2.63
2023-05-08T11:51:17.574Z,2.53
2023-05-08T11:53:44.686Z,2.47
2023-05-08T11:56:11.223Z,2.20
2023-05-08T11:58:37.771Z,2.50
2023-05-08T12:01:04.379Z,2.60
2023-05-08T12:03:31.102Z,2.47
2023-05-08T12:05:59.198Z,2.40
2023-05-08T12:08:26.178Z,2.50
2023-05-08T12:10:54.377Z,2.43
2023-05-08T12:13:23.920Z,2.50
2023-05-08T12:15:58.796Z,2.60
2023-05-08T12:18:27.570Z,2.73
2023-05-08T12:20:57.011Z,3.10
2023-05-08T12:23:25.855Z,2.60
2023-05-08T12:25:56.423Z,2.60
2023-05-08T12:28:23.006Z,2.47
2023-05-08T12:30:50.432Z,2.67
2023-05-08T12:33:18.661Z,3.07
2023-05-08T12:35:45.326Z,2.93
2023-05-08T12:38:12.115Z,2.63
2023-05-08T12:40:43.421Z,2.50
2023-05-08T12:43:10.275Z,2.30
2023-05-08T12:45:39.491Z,2.93
2023-05-08T12:48:08.170Z,2.40
2023-05-08T12:50:36.700Z,2.70
2023-05-08T12:53:07.742Z,2.53
2023-05-08T12:55:36.068Z,2.80
2023-05-08T12:58:15.287Z,2.47
2023-05-08T13:00:48.376Z,2.40
2023-05-08T13:03:27.036Z,2.60
2023-05-08T13:05:56.336Z,2.77
2023-05-08T13:08:34.411Z,2.40
2023-05-08T13:11:02.491Z,2.20
2023-05-08T13:13:32.021Z,3.07
2023-05-08T13:16:05.645Z,2.40
2023-05-08T13:18:33.171Z,2.60
2023-05-08T13:20:59.767Z,2.40
2023-05-08T13:23:26.234Z,2.83
2023-05-08T13:25:52.808Z,2.80
2023-05-08T13:28:19.388Z,2.97
2023-05-08T13:30:46.006Z,2.50
2023-05-08T13:33:12.536Z,2.70
2023-05-08T13:35:39.136Z,2.20
2023-05-08T13:38:06.012Z,2.90
2023-05-08T13:40:32.618Z,2.83
2023-05-08T13:42:59.076Z,2.50
2023-05-08T13:45:25.768Z,2.43
2023-05-08T13:47:52.338Z,2.30
2023-05-08T13:50:22.077Z,2.80
2023-05-08T13:52:49.445Z,2.40
2023-05-08T13:55:17.056Z,2.50
2023-05-08T13:57:43.959Z,2.50
2023-05-08T14:00:11.105Z,2.40
2023-05-08T14:02:38.021Z,2.33
2023-05-08T14:05:07.873Z,2.50
2023-05-08T14:07:34.996Z,2.50
2023-05-08T14:10:01.581Z,2.50
2023-05-08T14:12:28.083Z,2.37
2023-05-08T14:14:54.641Z,2.33
2023-05-08T14:17:21.174Z,2.23
2023-05-08T14:19:47.563Z,2.63
2023-05-08T14:22:14.080Z,2.47
2023-05-08T14:24:40.520Z,2.50
2023-05-08T14:27:06.980Z,2.63
2023-05-08T14:29:34.163Z,2.57
2023-05-08T14:32:01.158Z,2.40
2023-05-08T14:34:27.826Z,2.50
2023-05-08T14:36:54.459Z,2.23
2023-05-08T14:39:20.932Z,2.43
2023-05-08T14:42:05.278Z,2.30
2023-05-08T14:44:34.111Z,2.33
2023-05-08T14:47:00.749Z,2.43
2023-05-08T14:49:36.580Z,2.27
2023-05-08T14:52:05.553Z,2.30
2023-05-08T14:54:32.153Z,2.50
2023-05-08T14:56:58.718Z,2.20
2023-05-08T14:59:25.223Z,2.23
2023-05-08T15:01:51.803Z,2.10
2023-05-08T15:04:18.306Z,2.03
2023-05-08T15:06:44.895Z,2.20
2023-05-08T15:09:11.406Z,2.57
2023-05-08T15:11:38.110Z,1.90
2023-05-08T15:14:05.066Z,2.13
2023-05-08T15:16:31.674Z,2.10
2023-05-08T15:18:58.279Z,2.43
2023-05-08T15:21:26.695Z,2.33
2023-05-08T15:23:54.879Z,2.13
2023-05-08T15:26:22.266Z,2.20
2023-05-08T15:28:49.020Z,2.30
2023-05-08T15:31:15.754Z,2.23
2023-05-08T15:33:44.819Z,1.90
2023-05-08T15:36:13.174Z,2.17
2023-05-08T15:38:40.852Z,2.60
2023-05-08T15:41:07.443Z,2.70
2023-05-08T15:43:33.924Z,2.17
2023-05-08T15:46:00.496Z,2.67
2023-05-08T15:48:27.309Z,2.27
2023-05-08T15:50:53.950Z,1.90
2023-05-08T15:53:20.399Z,2.07
2023-05-08T15:55:46.875Z,2.00
2023-05-08T15:58:13.308Z,2.30
2023-05-08T16:00:44.874Z,1.93
2023-05-08T16:03:12.255Z,2.00
2023-05-08T16:05:39.596Z,2.30
2023-05-08T16:08:07.543Z,2.50
2023-05-08T16:10:34.344Z,2.27
2023-05-08T16:13:00.916Z,2.07
2023-05-08T16:15:27.398Z,2.40
2023-05-08T16:17:53.911Z,1.90
2023-05-08T16:20:20.472Z,2.00
2023-05-08T16:22:46.963Z,2.00
2023-05-08T16:25:13.616Z,2.10
2023-05-08T16:27:40.282Z,1.90
2023-05-08T16:30:07.488Z,1.90
2023-05-08T16:32:33.956Z,2.40
2023-05-08T16:35:00.601Z,1.90
2023-05-08T16:37:27.126Z,1.97
2023-05-08T16:39:53.578Z,1.70
2023-05-08T16:42:20.124Z,2.33
2023-05-08T16:44:47.275Z,2.40
2023-05-08T16:47:13.761Z,2.20
2023-05-08T16:49:40.587Z,1.97
2023-05-08T16:52:07.089Z,2.30
2023-05-08T16:54:33.830Z,1.60
2023-05-08T16:57:00.278Z,1.90
2023-05-08T16:59:26.812Z,2.30
2023-05-08T17:01:53.314Z,1.97
2023-05-08T17:04:19.853Z,2.30
2023-05-08T17:06:46.386Z,1.70
2023-05-08T17:09:12.797Z,2.20
2023-05-08T17:11:39.336Z,2.37
2023-05-08T17:14:05.879Z,1.83
2023-05-08T17:16:32.370Z,1.67
2023-05-08T17:18:59.707Z,1.73
2023-05-08T17:21:26.211Z,1.90
2023-05-08T17:23:52.718Z,2.00
2023-05-08T17:26:19.167Z,2.00
2023-05-08T17:28:45.616Z,2.10
2023-05-08T17:31:13.009Z,2.00
2023-05-08T17:33:39.462Z,2.10
2023-05-08T17:36:06.410Z,2.00
2023-05-08T17:38:32.909Z,1.90
2023-05-08T17:41:00.346Z,2.10
2023-05-08T17:43:28.506Z,2.13
2023-05-08T17:45:55.008Z,1.90
2023-05-08T17:48:21.495Z,2.20
2023-05-08T17:50:48.040Z,1.80
2023-05-08T17:53:14.496Z,1.73
2023-05-08T17:55:41.067Z,2.03
2023-05-08T17:58:07.493Z,1.97
2023-05-08T18:00:33.930Z,1.87
2023-05-08T18:03:00.548Z,2.00
2023-05-08T18:05:27.276Z,2.10
2023-05-08T18:07:53.895Z,1.70
2023-05-08T18:10:21.032Z,1.83
2023-05-08T18:12:47.522Z,2.00
2023-05-08T18:15:14.138Z,1.90
2023-05-08T18:17:40.953Z,1.93
2023-05-08T18:20:09.287Z,1.90
2023-05-08T18:22:35.824Z,2.17
2023-05-08T18:25:03.234Z,1.87
2023-05-08T18:27:29.766Z,1.77
2023-05-08T18:29:56.190Z,1.50
2023-05-08T18:32:22.782Z,2.07
2023-05-08T18:34:49.347Z,1.90
2023-05-08T18:37:15.917Z,1.70
2023-05-08T18:39:42.491Z,1.63
2023-05-08T18:42:08.934Z,2.07
2023-05-08T18:44:36.105Z,1.70
2023-05-08T18:47:02.671Z,2.00
2023-05-08T18:49:29.465Z,2.03
2023-05-08T18:51:55.980Z,2.07
2023-05-08T18:54:26.303Z,1.90
2023-05-08T18:56:55.792Z,1.97
2023-05-08T18:59:22.284Z,1.80
2023-05-08T19:01:50.582Z,2.10
2023-05-08T19:04:17.234Z,2.00
2023-05-08T19:06:43.687Z,2.00
2023-05-08T19:09:10.356Z,1.90
2023-05-08T19:11:36.855Z,1.73
2023-05-08T19:14:03.410Z,1.90
2023-05-08T19:16:29.871Z,2.00
2023-05-08T19:18:56.360Z,2.00
2023-05-08T19:21:23.097Z,1.87
2023-05-08T19:23:50.227Z,2.00
2023-05-08T19:26:16.692Z,1.90
2023-05-08T19:28:43.170Z,1.90
2023-05-08T19:31:09.635Z,1.70
2023-05-08T19:33:36.205Z,1.60
2023-05-08T19:36:02.638Z,1.73
2023-05-08T19:38:29.105Z,1.80
2023-05-08T19:40:57.678Z,1.80
2023-05-08T19:43:25.723Z,1.70
2023-05-08T19:45:52.279Z,1.77
2023-05-08T19:48:20.028Z,1.90
2023-05-08T19:50:46.960Z,1.70
2023-05-08T19:53:13.487Z,1.70
2023-05-08T19:55:40.037Z,1.93
2023-05-08T19:58:06.510Z,1.83
2023-05-08T20:00:35.215Z,1.70
2023-05-08T20:03:05.146Z,1.70
2023-05-08T20:05:31.851Z,1.70
2023-05-08T20:07:59.842Z,1.73
2023-05-08T20:10:26.352Z,2.10
2023-05-08T20:12:52.868Z,1.63
2023-05-08T20:15:19.451Z,1.53
2023-05-08T20:17:46.059Z,1.93
2023-05-08T20:20:13.131Z,1.90
2023-05-08T20:22:39.955Z,2.00
2023-05-08T20:25:07.161Z,2.00
2023-05-08T20:27:33.637Z,2.07
2023-05-08T20:30:00.195Z,1.70
2023-05-08T20:32:26.672Z,1.60
2023-05-08T20:34:53.532Z,2.10
2023-05-08T20:37:32.713Z,1.90
2023-05-08T20:39:59.632Z,1.50
2023-05-08T20:42:26.083Z,1.60
2023-05-08T20:44:52.821Z,1.77
2023-05-08T20:47:19.240Z,1.60
2023-05-08T20:49:45.693Z,1.70
2023-05-08T20:52:12.139Z,1.50
2023-05-08T20:54:38.608Z,2.07
2023-05-08T20:57:05.130Z,1.97
2023-05-08T20:59:31.563Z,1.90
2023-05-08T21:01:58.023Z,1.80
2023-05-08T21:04:24.524Z,1.60
2023-05-08T21:06:52.288Z,1.60
2023-05-08T21:09:18.990Z,1.97
2023-05-08T21:11:45.473Z,1.80
2023-05-08T21:14:11.968Z,1.97
2023-05-08T21:16:38.463Z,1.90
2023-05-08T21:19:05.019Z,1.70
2023-05-08T21:21:31.676Z,2.10
2023-05-08T21:23:58.137Z,2.23
2023-05-08T21:26:24.564Z,1.93
2023-05-08T21:28:52.508Z,1.90
2023-05-08T21:31:19.442Z,2.30
2023-05-08T21:33:45.996Z,2.00
2023-05-08T21:36:12.469Z,2.07
2023-05-08T21:38:38.867Z,2.10
2023-05-08T21:41:07.481Z,2.27
2023-05-08T21:43:35.580Z,1.93
2023-05-08T21:46:07.083Z,1.83
2023-05-08T21:48:34.052Z,1.97
2023-05-08T21:51:00.761Z,2.00
2023-05-08T21:53:27.307Z,2.07
2023-05-08T21:55:53.748Z,2.17
2023-05-08T21:58:21.456Z,1.60
2023-05-08T22:00:48.106Z,2.23
2023-05-08T22:03:14.838Z,1.90
2023-05-08T22:05:41.404Z,1.80
2023-05-08T22:08:07.875Z,1.80
2023-05-08T22:10:34.464Z,1.90
2023-05-08T22:13:01.728Z,2.00
2023-05-08T22:15:30.728Z,2.00
2023-05-08T22:17:58.545Z,1.93
2023-05-08T22:20:25.292Z,2.00
2023-05-08T22:22:51.866Z,1.97
2023-05-08T22:25:18.419Z,1.90
2023-05-08T22:27:44.930Z,1.83
2023-05-08T22:30:11.581Z,1.93
2023-05-08T22:32:38.061Z,1.70
2023-05-08T22:35:05.155Z,1.80
2023-05-08T22:37:31.706Z,2.07
2023-05-08T22:39:58.171Z,1.83
2023-05-08T22:42:26.681Z,1.83
2023-05-08T22:44:53.194Z,2.00
2023-05-08T22:47:19.833Z,1.83
2023-05-08T22:49:46.491Z,2.20
2023-05-08T22:52:13.316Z,1.87
2023-05-08T22:54:39.878Z,1.90
2023-05-08T22:57:06.408Z,1.83
2023-05-08T22:59:32.981Z,2.23
2023-05-08T23:01:59.447Z,1.40
2023-05-08T23:04:25.932Z,1.97
2023-05-08T23:06:52.430Z,1.80
2023-05-08T23:09:18.853Z,1.73
2023-05-08T23:11:45.649Z,2.17
2023-05-08T23:14:12.058Z,2.00
2023-05-08T23:16:38.575Z,1.90
2023-05-08T23:19:05.131Z,1.80
2023-05-08T23:21:32.123Z,1.97
2023-05-08T23:23:59.036Z,2.07
2023-05-08T23:26:26.040Z,1.90
2023-05-08T23:28:52.727Z,1.90
2023-05-08T23:31:19.268Z,1.97
2023-05-08T23:33:45.901Z,1.73
2023-05-08T23:36:12.421Z,1.80
2023-05-08T23:38:38.846Z,2.03
2023-05-08T23:41:05.381Z,1.93
2023-05-08T23:43:32.063Z,1.90
2023-05-08T23:45:58.737Z,2.07
2023-05-08T23:48:25.803Z,2.20
2023-05-08T23:50:52.554Z,2.10
2023-05-08T23:53:19.107Z,2.00
2023-05-08T23:55:48.874Z,1.60
2023-05-08T23:58:15.566Z,1.90
